createdAt,value
2022-07-26T00:01:06.038Z,24.09
2022-07-26T00:03:33.830Z,24.02
2022-07-26T00:06:01.434Z,23.94
2022-07-26T00:08:28.889Z,23.90
2022-07-26T00:10:56.828Z,23.77
2022-07-26T00:13:24.439Z,23.75
2022-07-26T00:15:59.133Z,23.75
2022-07-26T00:18:26.966Z,23.76
2022-07-26T00:20:55.470Z,23.68
2022-07-26T00:23:24.015Z,23.71
2022-07-26T00:25:52.060Z,23.74
2022-07-26T00:28:19.837Z,23.57
2022-07-26T00:30:48.179Z,23.66
2022-07-26T00:33:16.320Z,23.61
2022-07-26T00:35:43.945Z,23.54
2022-07-26T00:38:11.932Z,23.51
2022-07-26T00:40:40.363Z,23.37
2022-07-26T00:43:10.601Z,23.44
2022-07-26T00:45:38.793Z,23.27
2022-07-26T00:48:06.844Z,23.25
2022-07-26T00:50:35.108Z,23.23
2022-07-26T00:53:04.118Z,23.17
2022-07-26T00:55:32.546Z,23.25
2022-07-26T00:58:03.210Z,23.30
2022-07-26T01:00:33.142Z,23.12
2022-07-26T01:03:02.820Z,22.91
2022-07-26T01:05:32.133Z,22.98
2022-07-26T01:10:36.063Z,23.03
2022-07-26T01:13:05.945Z,22.90
2022-07-26T01:15:35.027Z,22.95
2022-07-26T01:18:03.062Z,23.05
2022-07-26T01:20:30.778Z,23.02
2022-07-26T01:22:58.576Z,22.97
2022-07-26T01:25:31.655Z,22.98
2022-07-26T01:27:59.245Z,22.72
2022-07-26T01:30:27.620Z,22.73
2022-07-26T01:32:55.441Z,22.61
2022-07-26T01:35:23.171Z,22.68
2022-07-26T01:37:52.464Z,22.65
2022-07-26T01:40:21.074Z,22.78
2022-07-26T01:42:48.651Z,22.77
2022-07-26T01:45:17.135Z,22.73
2022-07-26T01:47:51.038Z,22.71
2022-07-26T01:50:20.470Z,22.63
2022-07-26T01:52:48.382Z,22.70
2022-07-26T01:55:16.055Z,22.62
2022-07-26T01:57:45.578Z,22.65
2022-07-26T02:00:13.719Z,22.68
2022-07-26T02:02:41.706Z,22.57
2022-07-26T02:05:10.118Z,22.69
2022-07-26T02:07:44.562Z,22.56
2022-07-26T02:10:13.953Z,22.46
2022-07-26T02:12:42.478Z,22.46
2022-07-26T02:15:11.243Z,22.49
2022-07-26T02:17:39.607Z,22.42
2022-07-26T02:20:08.524Z,22.52
2022-07-26T02:22:36.468Z,22.42
2022-07-26T02:25:05.814Z,22.58
2022-07-26T02:27:33.572Z,22.46
2022-07-26T02:30:01.993Z,22.46
2022-07-26T02:32:30.484Z,22.45
2022-07-26T02:34:58.198Z,22.30
2022-07-26T02:37:26.118Z,22.33
2022-07-26T02:39:53.964Z,22.27
2022-07-26T02:42:21.511Z,22.29
2022-07-26T02:44:49.131Z,22.18
2022-07-26T02:47:17.176Z,22.27
2022-07-26T02:49:45.459Z,22.31
2022-07-26T02:52:13.577Z,22.25
2022-07-26T02:54:45.168Z,22.21
2022-07-26T02:57:15.033Z,22.15
2022-07-26T02:59:42.940Z,22.21
2022-07-26T03:02:10.700Z,22.19
2022-07-26T03:04:39.285Z,22.13
2022-07-26T03:07:07.504Z,22.23
2022-07-26T03:09:35.228Z,22.07
2022-07-26T03:12:03.106Z,21.94
2022-07-26T03:14:30.985Z,21.91
2022-07-26T03:16:58.983Z,21.92
2022-07-26T03:19:26.620Z,22.02
2022-07-26T03:21:54.827Z,22.05
2022-07-26T03:24:22.785Z,21.97
2022-07-26T03:26:50.943Z,22.09
2022-07-26T03:29:19.351Z,22.04
2022-07-26T03:31:48.280Z,21.92
2022-07-26T03:34:16.393Z,21.76
2022-07-26T03:36:44.820Z,21.95
2022-07-26T03:39:12.735Z,22.00
2022-07-26T03:41:41.369Z,21.96
2022-07-26T03:44:09.613Z,22.07
2022-07-26T03:46:38.924Z,22.03
2022-07-26T03:49:10.883Z,22.19
2022-07-26T03:51:41.702Z,22.27
2022-07-26T03:54:11.959Z,22.27
2022-07-26T03:56:41.844Z,22.26
2022-07-26T03:59:11.365Z,22.46
2022-07-26T04:01:43.286Z,22.47
2022-07-26T04:04:13.033Z,22.58
2022-07-26T04:06:41.568Z,22.59
2022-07-26T04:09:12.346Z,22.77
2022-07-26T04:11:42.847Z,22.82
2022-07-26T04:14:12.010Z,22.97
2022-07-26T04:16:43.435Z,23.06
2022-07-26T04:19:12.380Z,23.09
2022-07-26T04:21:40.072Z,23.06
2022-07-26T04:24:08.769Z,23.36
2022-07-26T04:26:38.329Z,23.50
2022-07-26T04:29:08.454Z,23.54
2022-07-26T04:31:45.432Z,23.35
2022-07-26T04:34:13.448Z,23.55
2022-07-26T04:36:43.417Z,23.62
2022-07-26T04:39:15.182Z,23.47
2022-07-26T04:41:44.666Z,23.45
2022-07-26T04:44:13.823Z,23.45
2022-07-26T04:46:44.990Z,23.68
2022-07-26T04:49:14.168Z,23.92
2022-07-26T04:51:42.461Z,24.15
2022-07-26T04:54:10.732Z,23.89
2022-07-26T04:56:39.243Z,24.03
2022-07-26T04:59:07.632Z,24.23
2022-07-26T05:01:36.377Z,24.66
2022-07-26T05:04:05.273Z,24.43
2022-07-26T05:06:33.619Z,24.60
2022-07-26T05:09:04.174Z,24.55
2022-07-26T05:11:42.293Z,24.76
2022-07-26T05:14:10.346Z,24.85
2022-07-26T05:16:44.272Z,24.88
2022-07-26T05:19:14.393Z,24.93
2022-07-26T05:21:43.616Z,25.17
2022-07-26T05:24:11.467Z,25.44
2022-07-26T05:26:39.389Z,25.51
2022-07-26T05:29:07.879Z,25.78
2022-07-26T05:31:37.561Z,25.83
2022-07-26T05:34:05.601Z,26.03
2022-07-26T05:36:38.176Z,26.39
2022-07-26T05:39:07.159Z,26.38
2022-07-26T05:44:11.545Z,26.86
2022-07-26T05:46:41.480Z,27.06
2022-07-26T05:49:10.531Z,27.09
2022-07-26T05:51:38.662Z,27.32
2022-07-26T05:54:07.215Z,27.43
2022-07-26T05:56:36.132Z,27.62
2022-07-26T05:59:07.202Z,28.00
2022-07-26T06:01:40.369Z,28.37
2022-07-26T06:04:10.960Z,28.04
2022-07-26T06:06:39.401Z,28.21
2022-07-26T06:09:07.389Z,28.32
2022-07-26T06:11:44.541Z,28.59
2022-07-26T06:14:13.842Z,28.72
2022-07-26T06:16:43.100Z,28.93
2022-07-26T06:19:14.137Z,29.02
2022-07-26T06:21:42.897Z,29.04
2022-07-26T06:24:11.346Z,29.15
2022-07-26T06:26:47.164Z,29.12
2022-07-26T06:29:19.701Z,29.33
2022-07-26T06:31:48.414Z,29.28
2022-07-26T06:34:16.935Z,29.54
2022-07-26T06:36:46.712Z,29.72
2022-07-26T06:39:14.723Z,29.06
2022-07-26T06:41:44.864Z,29.23
2022-07-26T06:44:18.150Z,29.55
2022-07-26T06:46:46.148Z,29.68
2022-07-26T06:49:18.385Z,29.74
2022-07-26T06:51:51.088Z,29.55
2022-07-26T06:54:20.384Z,29.50
2022-07-26T06:56:49.596Z,29.52
2022-07-26T06:59:20.205Z,29.57
2022-07-26T07:01:59.233Z,29.60
2022-07-26T07:04:33.259Z,29.62
2022-07-26T07:07:09.168Z,29.53
2022-07-26T07:09:38.402Z,29.87
2022-07-26T07:12:09.403Z,30.08
2022-07-26T07:14:41.622Z,29.79
2022-07-26T07:17:12.206Z,30.16
2022-07-26T07:19:44.142Z,30.15
2022-07-26T07:22:13.224Z,30.24
2022-07-26T07:24:43.183Z,30.15
2022-07-26T07:27:12.419Z,30.58
2022-07-26T07:29:42.188Z,30.73
2022-07-26T07:32:15.909Z,31.04
2022-07-26T07:34:48.964Z,30.91
2022-07-26T07:37:20.139Z,31.07
2022-07-26T07:39:50.673Z,31.19
2022-07-26T07:42:21.501Z,31.15
2022-07-26T07:44:50.560Z,31.40
2022-07-26T07:47:18.671Z,30.94
2022-07-26T07:49:47.914Z,30.88
2022-07-26T07:52:18.931Z,30.90
2022-07-26T07:54:47.950Z,30.77
2022-07-26T07:57:22.178Z,30.83
2022-07-26T08:00:00.383Z,30.87
2022-07-26T08:02:35.651Z,30.79
2022-07-26T08:05:05.000Z,30.73
2022-07-26T08:07:43.168Z,30.54
2022-07-26T08:10:18.733Z,30.29
2022-07-26T08:12:55.332Z,30.50
2022-07-26T08:15:27.702Z,30.37
2022-07-26T08:17:56.187Z,30.35
2022-07-26T08:20:30.424Z,30.21
2022-07-26T08:23:00.262Z,30.61
2022-07-26T08:25:29.416Z,31.04
2022-07-26T08:28:04.000Z,30.84
2022-07-26T08:30:33.385Z,30.73
2022-07-26T08:33:02.643Z,30.61
2022-07-26T08:35:33.912Z,30.23
2022-07-26T08:38:08.429Z,30.71
2022-07-26T08:40:41.612Z,30.90
2022-07-26T08:43:11.589Z,31.20
2022-07-26T08:45:41.874Z,31.03
2022-07-26T08:48:17.604Z,31.25
2022-07-26T08:50:57.231Z,31.23
2022-07-26T08:53:38.152Z,31.62
2022-07-26T08:56:09.398Z,31.80
2022-07-26T08:58:38.241Z,31.40
2022-07-26T09:01:09.588Z,31.66
2022-07-26T09:03:43.270Z,31.69
2022-07-26T09:06:14.010Z,31.93
2022-07-26T09:08:45.255Z,31.80
2022-07-26T09:11:34.769Z,31.64
2022-07-26T09:14:05.212Z,31.02
2022-07-26T09:16:39.045Z,31.27
2022-07-26T09:19:23.226Z,31.12
2022-07-26T09:21:52.883Z,30.74
2022-07-26T09:24:35.073Z,30.66
2022-07-26T09:27:07.235Z,30.76
2022-07-26T09:29:47.252Z,30.34
2022-07-26T09:32:29.615Z,30.20
2022-07-26T09:35:36.992Z,29.87
2022-07-26T09:38:00.509Z,29.76
2022-07-26T09:40:36.455Z,29.66
2022-07-26T09:43:07.578Z,29.45
2022-07-26T09:45:39.279Z,29.32
2022-07-26T09:48:13.643Z,29.11
2022-07-26T09:50:50.259Z,28.58
2022-07-26T09:53:27.808Z,28.23
2022-07-26T09:55:59.272Z,27.79
2022-07-26T09:58:29.235Z,27.86
2022-07-26T10:03:40.514Z,27.77
2022-07-26T10:06:14.629Z,27.27
2022-07-26T10:08:43.798Z,26.95
2022-07-26T10:11:12.740Z,26.37
2022-07-26T10:13:49.141Z,26.27
2022-07-26T10:16:35.257Z,25.97
2022-07-26T10:19:11.846Z,25.85
2022-07-26T10:21:42.306Z,25.98
2022-07-26T10:24:26.545Z,26.38
2022-07-26T10:26:54.847Z,26.14
2022-07-26T10:29:27.251Z,26.19
2022-07-26T10:32:01.890Z,25.72
2022-07-26T10:34:47.376Z,25.59
2022-07-26T10:37:27.894Z,25.78
2022-07-26T10:40:22.466Z,25.64
2022-07-26T10:42:51.776Z,25.70
2022-07-26T10:45:26.172Z,25.74
2022-07-26T10:48:18.728Z,25.81
2022-07-26T10:50:50.316Z,25.57
2022-07-26T10:53:20.918Z,25.48
2022-07-26T10:55:55.356Z,25.63
2022-07-26T10:58:27.265Z,25.46
2022-07-26T11:01:05.579Z,25.63
2022-07-26T11:03:44.705Z,25.71
2022-07-26T11:06:20.324Z,25.65
2022-07-26T11:08:51.315Z,25.72
2022-07-26T11:14:14.750Z,25.88
2022-07-26T11:16:48.487Z,25.41
2022-07-26T11:19:21.364Z,25.66
2022-07-26T11:21:56.359Z,25.65
2022-07-26T11:24:27.258Z,25.84
2022-07-26T11:27:04.343Z,25.83
2022-07-26T11:29:38.684Z,25.14
2022-07-26T11:32:19.372Z,25.62
2022-07-26T11:35:01.605Z,25.56
2022-07-26T11:37:31.312Z,25.84
2022-07-26T11:40:00.597Z,25.73
2022-07-26T11:42:32.453Z,25.83
2022-07-26T11:45:03.489Z,25.83
2022-07-26T11:47:34.102Z,25.87
2022-07-26T11:50:16.808Z,25.99
2022-07-26T11:52:52.280Z,26.07
2022-07-26T11:55:31.665Z,26.12
2022-07-26T11:58:05.154Z,26.27
2022-07-26T12:00:39.735Z,26.22
2022-07-26T12:03:08.018Z,26.56
2022-07-26T12:05:37.136Z,26.25
2022-07-26T12:08:08.363Z,26.52
2022-07-26T12:10:38.925Z,26.05
2022-07-26T12:13:09.509Z,26.24
2022-07-26T12:15:48.331Z,26.33
2022-07-26T12:18:25.257Z,26.27
2022-07-26T12:21:04.467Z,26.29
2022-07-26T12:23:45.153Z,26.32
2022-07-26T12:26:23.365Z,26.41
2022-07-26T12:28:54.274Z,26.40
2022-07-26T12:31:34.438Z,26.36
2022-07-26T12:34:03.139Z,25.83
2022-07-26T12:36:33.997Z,26.42
2022-07-26T12:39:07.345Z,26.42
2022-07-26T12:41:40.248Z,26.55
2022-07-26T12:44:13.612Z,26.28
2022-07-26T12:46:47.467Z,26.12
2022-07-26T12:49:17.640Z,26.23
2022-07-26T12:51:46.266Z,26.28
2022-07-26T12:54:15.908Z,26.21
2022-07-26T12:56:44.028Z,26.05
2022-07-26T12:59:17.842Z,26.06
2022-07-26T13:01:46.576Z,26.11
2022-07-26T13:04:19.322Z,26.36
2022-07-26T13:07:10.579Z,26.50
2022-07-26T13:09:41.111Z,26.41
2022-07-26T13:12:13.819Z,26.54
2022-07-26T13:14:48.489Z,26.95
2022-07-26T13:17:19.478Z,27.24
2022-07-26T13:19:50.953Z,27.51
2022-07-26T13:22:20.435Z,27.90
2022-07-26T13:24:53.000Z,27.79
2022-07-26T13:27:22.527Z,27.54
2022-07-26T13:29:51.454Z,27.47
2022-07-26T13:32:24.589Z,27.68
2022-07-26T13:35:05.363Z,27.89
2022-07-26T13:37:39.718Z,27.77
2022-07-26T13:40:13.291Z,27.88
2022-07-26T13:42:51.314Z,28.08
2022-07-26T13:45:21.327Z,27.99
2022-07-26T13:47:49.936Z,28.06
2022-07-26T13:50:21.301Z,28.14
2022-07-26T13:52:53.299Z,28.04
2022-07-26T13:55:22.780Z,28.05
2022-07-26T13:57:55.815Z,27.99
2022-07-26T14:00:34.540Z,28.36
2022-07-26T14:03:07.553Z,27.92
2022-07-26T14:05:38.213Z,28.11
2022-07-26T14:08:07.690Z,28.42
2022-07-26T14:10:42.767Z,28.32
2022-07-26T14:13:14.264Z,28.41
2022-07-26T14:15:45.360Z,28.45
2022-07-26T14:18:16.510Z,28.50
2022-07-26T14:20:48.352Z,28.42
2022-07-26T14:23:21.670Z,28.67
2022-07-26T14:25:59.530Z,28.26
2022-07-26T14:28:32.302Z,28.41
2022-07-26T14:31:04.285Z,28.20
2022-07-26T14:33:34.330Z,28.31
2022-07-26T14:36:02.806Z,28.29
2022-07-26T14:38:32.042Z,28.57
2022-07-26T14:41:06.843Z,28.54
2022-07-26T14:43:52.520Z,28.39
2022-07-26T14:46:32.345Z,28.12
2022-07-26T14:49:01.608Z,28.25
2022-07-26T14:51:42.299Z,28.10
2022-07-26T14:54:16.531Z,28.12
2022-07-26T14:56:50.309Z,28.25
2022-07-26T14:59:21.338Z,28.32
2022-07-26T15:01:51.689Z,28.31
2022-07-26T15:04:23.588Z,27.86
2022-07-26T15:06:53.513Z,28.28
2022-07-26T15:11:58.828Z,28.27
2022-07-26T15:14:44.280Z,28.42
2022-07-26T15:20:02.643Z,28.46
2022-07-26T15:22:33.040Z,28.35
2022-07-26T15:25:01.388Z,28.46
2022-07-26T15:30:13.182Z,28.30
2022-07-26T15:32:47.938Z,28.28
2022-07-26T15:35:29.524Z,28.44
2022-07-26T15:37:59.548Z,28.57
2022-07-26T15:40:27.898Z,28.40
2022-07-26T15:45:41.118Z,28.48
2022-07-26T15:48:19.437Z,28.52
2022-07-26T15:50:54.823Z,28.32
2022-07-26T15:53:31.300Z,28.30
2022-07-26T15:56:01.148Z,28.62
2022-07-26T15:58:30.099Z,28.65
2022-07-26T16:01:14.386Z,28.40
2022-07-26T16:04:03.550Z,28.07
2022-07-26T16:06:32.652Z,28.14
2022-07-26T16:09:19.328Z,28.21
2022-07-26T16:11:54.907Z,28.51
2022-07-26T16:14:29.757Z,28.36
2022-07-26T16:17:02.197Z,28.35
2022-07-26T16:22:14.367Z,28.14
2022-07-26T16:24:45.052Z,28.23
2022-07-26T16:27:20.361Z,28.16
2022-07-26T16:29:52.170Z,28.24
2022-07-26T16:32:21.835Z,28.34
2022-07-26T16:34:50.689Z,28.22
2022-07-26T16:37:25.774Z,28.32
2022-07-26T16:40:05.022Z,28.57
2022-07-26T16:42:57.382Z,28.23
2022-07-26T16:45:26.011Z,28.35
2022-07-26T16:47:59.996Z,28.12
2022-07-26T16:50:39.339Z,28.06
2022-07-26T16:53:13.293Z,28.23
2022-07-26T16:55:52.759Z,28.15
2022-07-26T16:58:31.914Z,28.24
2022-07-26T17:01:01.704Z,28.27
2022-07-26T17:03:40.311Z,28.33
2022-07-26T17:06:14.501Z,28.63
2022-07-26T17:08:44.925Z,28.43
2022-07-26T17:11:19.377Z,28.23
2022-07-26T17:13:56.815Z,28.31
2022-07-26T17:16:34.569Z,28.13
2022-07-26T17:19:06.378Z,28.27
2022-07-26T17:21:37.092Z,28.62
2022-07-26T17:24:10.415Z,28.36
2022-07-26T17:26:53.397Z,28.31
2022-07-26T17:29:29.906Z,28.51
2022-07-26T17:34:42.663Z,28.16
2022-07-26T17:37:12.908Z,28.02
2022-07-26T17:45:06.561Z,27.63
2022-07-26T17:47:35.831Z,27.58
2022-07-26T17:50:35.350Z,27.13
2022-07-26T17:53:13.551Z,27.41
2022-07-26T17:55:47.378Z,27.15
2022-07-26T17:58:19.833Z,27.15
2022-07-26T18:00:54.496Z,27.08
2022-07-26T18:06:08.898Z,27.19
2022-07-26T18:08:38.930Z,27.35
2022-07-26T18:11:17.366Z,26.76
2022-07-26T18:13:50.508Z,27.38
2022-07-26T18:19:05.421Z,27.10
2022-07-26T18:21:38.932Z,27.33
2022-07-26T18:24:18.839Z,27.37
2022-07-26T18:27:01.229Z,27.19
2022-07-26T18:32:23.651Z,27.10
2022-07-26T18:34:58.326Z,26.97
2022-07-26T18:37:43.462Z,26.92
2022-07-26T18:40:28.608Z,26.84
2022-07-26T18:43:17.824Z,26.98
2022-07-26T18:46:12.445Z,27.06
2022-07-26T18:49:07.482Z,27.19
2022-07-26T18:52:08.217Z,26.80
2022-07-26T18:57:31.685Z,26.69
2022-07-26T19:00:18.358Z,26.69
2022-07-26T19:02:59.609Z,26.43
2022-07-26T19:05:35.753Z,26.50
2022-07-26T19:08:23.426Z,26.70
2022-07-26T19:11:03.535Z,26.67
2022-07-26T19:13:41.968Z,26.30
2022-07-26T19:19:03.439Z,26.43
2022-07-26T19:21:44.856Z,26.72
2022-07-26T19:24:33.497Z,26.62
2022-07-26T19:27:03.665Z,26.52
2022-07-26T19:29:42.478Z,26.63
2022-07-26T19:34:55.437Z,26.23
2022-07-26T19:37:38.083Z,26.38
2022-07-26T19:40:14.497Z,26.24
2022-07-26T19:42:54.542Z,26.17
2022-07-26T19:45:24.373Z,26.20
2022-07-26T19:47:56.648Z,26.24
2022-07-26T19:50:26.280Z,26.14
2022-07-26T19:53:02.230Z,25.86
2022-07-26T19:55:48.470Z,25.88
2022-07-26T19:58:20.717Z,26.02
2022-07-26T20:01:03.582Z,25.86
2022-07-26T20:03:39.493Z,25.97
2022-07-26T20:08:49.612Z,25.82
2022-07-26T20:11:28.538Z,25.96
2022-07-26T20:13:58.482Z,25.80
2022-07-26T20:16:38.408Z,25.55
2022-07-26T20:19:12.389Z,25.95
2022-07-26T20:21:48.620Z,25.84
2022-07-26T20:24:26.444Z,25.51
2022-07-26T20:27:04.401Z,25.43
2022-07-26T20:29:46.490Z,25.47
2022-07-26T20:32:21.275Z,25.44
2022-07-26T20:34:50.670Z,25.20
2022-07-26T20:37:20.835Z,25.17
2022-07-26T20:39:55.420Z,25.23
2022-07-26T20:42:26.359Z,25.13
2022-07-26T20:45:02.460Z,25.14
2022-07-26T20:47:40.648Z,24.98
2022-07-26T20:50:15.597Z,25.09
2022-07-26T20:52:52.108Z,25.13
2022-07-26T20:55:23.110Z,24.69
2022-07-26T20:57:55.913Z,25.36
2022-07-26T21:00:28.072Z,25.18
2022-07-26T21:02:59.256Z,24.87
2022-07-26T21:05:32.375Z,24.61
2022-07-26T21:08:00.640Z,24.93
2022-07-26T21:10:29.906Z,24.66
2022-07-26T21:13:01.123Z,24.69
2022-07-26T21:15:30.872Z,24.94
2022-07-26T21:18:01.656Z,24.97
2022-07-26T21:20:29.985Z,24.80
2022-07-26T21:23:15.985Z,24.48
2022-07-26T21:25:45.663Z,24.55
2022-07-26T21:28:15.222Z,24.68
2022-07-26T21:30:46.229Z,24.54
2022-07-26T21:33:15.721Z,24.27
2022-07-26T21:35:47.952Z,24.29
2022-07-26T21:38:16.454Z,24.17
2022-07-26T21:40:44.570Z,24.37
2022-07-26T21:43:12.468Z,24.40
2022-07-26T21:45:41.294Z,24.36
2022-07-26T21:48:09.495Z,24.30
2022-07-26T21:50:37.879Z,24.20
2022-07-26T21:53:06.540Z,24.07
2022-07-26T21:55:35.915Z,23.87
2022-07-26T21:58:04.923Z,23.86
2022-07-26T22:00:32.918Z,23.87
2022-07-26T22:03:01.086Z,23.73
2022-07-26T22:05:35.114Z,23.70
2022-07-26T22:08:03.319Z,23.80
2022-07-26T22:10:34.476Z,23.75
2022-07-26T22:13:05.584Z,23.90
2022-07-26T22:15:34.583Z,23.91
2022-07-26T22:18:02.790Z,23.79
2022-07-26T22:20:35.437Z,23.95
2022-07-26T22:23:09.520Z,23.99
2022-07-26T22:25:39.076Z,23.84
2022-07-26T22:28:09.810Z,23.89
2022-07-26T22:30:39.442Z,23.88
2022-07-26T22:33:08.243Z,23.77
2022-07-26T22:35:36.525Z,23.72
2022-07-26T22:38:07.402Z,23.81
2022-07-26T22:40:36.452Z,23.84
2022-07-26T22:43:04.351Z,23.80
2022-07-26T22:45:33.830Z,23.69
2022-07-26T22:48:03.154Z,23.81
2022-07-26T22:50:31.554Z,23.43
2022-07-26T22:53:01.439Z,23.41
2022-07-26T22:55:29.584Z,23.39
2022-07-26T22:57:57.419Z,23.23
2022-07-26T23:00:25.720Z,23.38
2022-07-26T23:02:53.731Z,23.29
2022-07-26T23:05:21.717Z,23.29
2022-07-26T23:07:59.179Z,23.55
2022-07-26T23:10:31.211Z,23.47
2022-07-26T23:13:00.796Z,23.37
2022-07-26T23:15:28.751Z,23.33
2022-07-26T23:17:57.706Z,23.04
2022-07-26T23:20:26.834Z,22.82
2022-07-26T23:22:54.686Z,23.13
2022-07-26T23:25:23.707Z,22.67
2022-07-26T23:27:52.983Z,23.02
2022-07-26T23:30:20.891Z,23.03
2022-07-26T23:32:48.578Z,22.58
2022-07-26T23:35:16.578Z,22.61
2022-07-26T23:37:44.159Z,22.73
2022-07-26T23:40:11.934Z,22.82
2022-07-26T23:42:40.083Z,22.89
2022-07-26T23:45:08.415Z,22.99
2022-07-26T23:47:35.950Z,22.57
2022-07-26T23:50:04.132Z,22.56
2022-07-26T23:52:42.409Z,22.49
2022-07-26T23:55:11.184Z,22.45
2022-07-26T23:57:39.240Z,22.65
